Time;durP1;ratioP1;P1;durP2;ratioP2;P2;SDS_P1;SDS_P2;PMS_P1;PMS_P2;Temp;Humidity;BMP_temperature;BMP_pressure;BME280_temperature;BME280_humidity;BME280_pressure;Samples;Min_cycle;Max_cycle;Signal;HPM_P1;HPM_P2
2021/08/20 00:01:18;;;;;;;1.85;0.90;;;;;;;;;;5021095;28;20061;-89
2021/08/20 00:03:44;;;;;;;3.58;1.05;;;;;;;;;;5024194;28;20053;-90
2021/08/20 00:06:10;;;;;;;3.25;1.23;;;;;;;;;;5022368;28;21654;-90
2021/08/20 00:08:37;;;;;;;3.05;1.00;;;;;;;;;;5021398;28;20123;-88
2021/08/20 00:11:06;;;;;;;3.22;1.00;;;;;;;;;;5020992;28;20069;-89
2021/08/20 00:13:33;;;;;;;2.17;0.90;;;;;;;;;;5022282;28;20078;-88
2021/08/20 00:16:00;;;;;;;3.00;1.17;;;;;;;;;;5022512;28;20124;-89
2021/08/20 00:18:26;;;;;;;2.15;1.00;;;;;;;;;;5018092;28;20761;-87
2021/08/20 00:20:53;;;;;;;1.70;0.80;;;;;;;;;;5016578;28;20089;-87
2021/08/20 00:23:20;;;;;;;3.95;0.80;;;;;;;;;;5020888;28;20045;-87
2021/08/20 00:25:46;;;;;;;2.17;0.90;;;;;;;;;;5025192;28;20073;-89
2021/08/20 00:28:15;;;;;;;2.75;1.08;;;;;;;;;;5026147;28;20072;-88
2021/08/20 00:30:42;;;;;;;2.60;1.00;;;;;;;;;;5019010;28;20139;-87
2021/08/20 00:33:08;;;;;;;1.55;0.93;;;;;;;;;;5022511;28;20068;-87
2021/08/20 00:35:34;;;;;;;2.63;1.20;;;;;;;;;;5023395;28;20069;-87
2021/08/20 00:38:01;;;;;;;2.58;1.17;;;;;;;;;;5018846;28;20057;-86
2021/08/20 00:40:27;;;;;;;2.85;1.00;;;;;;;;;;5025222;28;20061;-86
2021/08/20 00:42:54;;;;;;;2.83;1.30;;;;;;;;;;5011415;28;20066;-86
2021/08/20 00:45:20;;;;;;;2.55;1.10;;;;;;;;;;5019325;28;20057;-88
2021/08/20 00:47:46;;;;;;;2.67;1.00;;;;;;;;;;5015012;28;20057;-85
2021/08/20 00:50:13;;;;;;;1.65;0.90;;;;;;;;;;5016596;28;20065;-91
2021/08/20 00:52:39;;;;;;;2.63;0.90;;;;;;;;;;5021609;28;20501;-91
2021/08/20 00:55:09;;;;;;;2.33;0.98;;;;;;;;;;5017382;28;20057;-86
2021/08/20 00:57:35;;;;;;;3.00;0.90;;;;;;;;;;5027281;28;20061;-89
2021/08/20 01:00:01;;;;;;;1.95;0.95;;;;;;;;;;5017884;28;20556;-89
2021/08/20 01:02:28;;;;;;;3.28;1.13;;;;;;;;;;5022719;28;20166;-88
2021/08/20 01:04:54;;;;;;;2.97;1.13;;;;;;;;;;5015322;28;20064;-88
2021/08/20 01:07:21;;;;;;;4.63;1.30;;;;;;;;;;5017458;28;20064;-88
2021/08/20 01:09:47;;;;;;;3.17;1.10;;;;;;;;;;5023336;28;20065;-89
2021/08/20 01:12:14;;;;;;;2.75;1.05;;;;;;;;;;5014674;28;20078;-89
2021/08/20 01:14:40;;;;;;;3.10;1.00;;;;;;;;;;5022976;28;20069;-89
2021/08/20 01:17:09;;;;;;;3.08;1.00;;;;;;;;;;5024444;28;20068;-92
2021/08/20 01:19:36;;;;;;;3.38;1.25;;;;;;;;;;5027795;28;20064;-90
2021/08/20 01:22:05;;;;;;;3.83;0.95;;;;;;;;;;5021610;28;20441;-90
2021/08/20 01:24:31;;;;;;;2.65;0.88;;;;;;;;;;5029171;28;20033;-91
2021/08/20 01:26:58;;;;;;;3.63;1.08;;;;;;;;;;5010903;28;20069;-90
2021/08/20 01:29:24;;;;;;;3.15;1.20;;;;;;;;;;5023027;28;20061;-90
2021/08/20 01:31:51;;;;;;;4.45;1.05;;;;;;;;;;5027760;28;20080;-85
2021/08/20 01:34:17;;;;;;;3.35;1.00;;;;;;;;;;5019159;28;21017;-85
2021/08/20 01:36:44;;;;;;;3.35;1.05;;;;;;;;;;5018739;28;20416;-86
2021/08/20 01:39:10;;;;;;;1.77;0.88;;;;;;;;;;5015338;28;20065;-87
2021/08/20 01:41:37;;;;;;;3.35;0.95;;;;;;;;;;5020229;28;20426;-87
2021/08/20 01:44:04;;;;;;;2.83;1.00;;;;;;;;;;5015518;28;20107;-87
2021/08/20 01:46:31;;;;;;;1.40;0.77;;;;;;;;;;5016872;28;20142;-88
2021/08/20 01:49:00;;;;;;;2.20;0.90;;;;;;;;;;5022929;28;20057;-84
2021/08/20 01:51:27;;;;;;;3.45;1.33;;;;;;;;;;5023607;28;20501;-87
2021/08/20 01:53:54;;;;;;;2.92;0.90;;;;;;;;;;5019685;28;20087;-88
2021/08/20 01:56:21;;;;;;;2.60;1.10;;;;;;;;;;5021188;28;20072;-90
2021/08/20 01:58:49;;;;;;;1.80;0.82;;;;;;;;;;5019031;28;20065;-87
2021/08/20 02:01:15;;;;;;;2.55;1.00;;;;;;;;;;5014413;28;20061;-89
2021/08/20 02:03:42;;;;;;;3.78;1.15;;;;;;;;;;5022056;28;20501;-89
2021/08/20 02:06:08;;;;;;;2.10;0.88;;;;;;;;;;5019597;28;20446;-88
2021/08/20 02:08:35;;;;;;;2.97;0.95;;;;;;;;;;5024289;28;20044;-88
2021/08/20 02:11:01;;;;;;;3.63;1.25;;;;;;;;;;5014893;28;20053;-89
2021/08/20 02:13:30;;;;;;;1.92;0.80;;;;;;;;;;5025114;28;20049;-91
2021/08/20 02:15:57;;;;;;;2.92;0.90;;;;;;;;;;5015795;28;20077;-89
2021/08/20 02:18:24;;;;;;;2.53;0.93;;;;;;;;;;5016819;28;20057;-89
2021/08/20 02:20:50;;;;;;;2.60;0.98;;;;;;;;;;5020363;28;20065;-88
2021/08/20 02:23:17;;;;;;;4.30;1.05;;;;;;;;;;5022071;28;22214;-88
2021/08/20 02:25:43;;;;;;;2.67;1.00;;;;;;;;;;5014772;28;20073;-87
2021/08/20 02:28:09;;;;;;;2.83;0.90;;;;;;;;;;5017654;28;20061;-85
2021/08/20 02:30:36;;;;;;;2.58;1.08;;;;;;;;;;5021163;28;20879;-85
2021/08/20 02:33:02;;;;;;;4.18;1.00;;;;;;;;;;5011138;28;20073;-88
2021/08/20 02:35:29;;;;;;;2.72;1.00;;;;;;;;;;5017557;28;20618;-86
2021/08/20 02:37:55;;;;;;;2.33;1.05;;;;;;;;;;5021697;28;20034;-86
2021/08/20 02:40:22;;;;;;;2.17;1.00;;;;;;;;;;5021947;28;20065;-87
2021/08/20 02:42:50;;;;;;;2.72;0.95;;;;;;;;;;5011298;28;20503;-84
2021/08/20 02:45:16;;;;;;;1.48;0.80;;;;;;;;;;5018673;28;20058;-85
2021/08/20 02:47:42;;;;;;;2.80;1.00;;;;;;;;;;5024991;28;20127;-86
2021/08/20 02:50:09;;;;;;;3.03;0.95;;;;;;;;;;5023131;28;20509;-84
2021/08/20 02:52:36;;;;;;;2.85;1.20;;;;;;;;;;5014979;28;20080;-87
2021/08/20 02:55:02;;;;;;;3.67;1.00;;;;;;;;;;5020348;28;20050;-86
2021/08/20 02:57:28;;;;;;;2.67;1.02;;;;;;;;;;5013500;28;20069;-86
2021/08/20 02:59:55;;;;;;;2.05;0.85;;;;;;;;;;5014157;28;20053;-84
2021/08/20 03:02:22;;;;;;;3.00;1.02;;;;;;;;;;5019527;28;20073;-84
2021/08/20 03:04:48;;;;;;;2.10;0.85;;;;;;;;;;5025523;28;20072;-86
2021/08/20 03:07:18;;;;;;;1.95;1.10;;;;;;;;;;5018420;28;20061;-86
2021/08/20 03:09:45;;;;;;;2.42;0.90;;;;;;;;;;5023100;28;20041;-84
2021/08/20 03:12:11;;;;;;;2.30;1.00;;;;;;;;;;5025921;28;20072;-86
2021/08/20 03:14:37;;;;;;;3.30;1.30;;;;;;;;;;5033607;28;20462;-85
2021/08/20 03:17:04;;;;;;;3.22;1.10;;;;;;;;;;5019430;28;20073;-86
2021/08/20 03:19:30;;;;;;;2.97;0.80;;;;;;;;;;5019798;28;20470;-85
2021/08/20 03:21:57;;;;;;;2.97;1.15;;;;;;;;;;5017325;28;20049;-84
2021/08/20 03:24:23;;;;;;;2.42;0.90;;;;;;;;;;5020588;28;20053;-87
2021/08/20 03:26:50;;;;;;;3.83;1.05;;;;;;;;;;5024529;28;20053;-85
2021/08/20 03:29:17;;;;;;;2.70;0.88;;;;;;;;;;5022704;28;20100;-87
2021/08/20 03:31:43;;;;;;;2.97;0.95;;;;;;;;;;5027479;28;20501;-91
2021/08/20 03:34:09;;;;;;;2.08;1.00;;;;;;;;;;5024805;28;20123;-85
2021/08/20 03:36:36;;;;;;;2.35;1.00;;;;;;;;;;5025258;28;20057;-88
2021/08/20 03:39:02;;;;;;;3.33;0.93;;;;;;;;;;5020730;28;20565;-86
2021/08/20 03:41:29;;;;;;;1.55;0.80;;;;;;;;;;5015004;28;20061;-85
2021/08/20 03:43:55;;;;;;;3.22;1.00;;;;;;;;;;5024146;28;20062;-87
2021/08/20 03:46:22;;;;;;;2.67;0.90;;;;;;;;;;5022462;28;20073;-85
2021/08/20 03:48:49;;;;;;;2.90;0.98;;;;;;;;;;5020980;28;20076;-81
2021/08/20 03:51:16;;;;;;;2.85;0.85;;;;;;;;;;5013899;28;20068;-85
2021/08/20 03:53:42;;;;;;;2.63;1.05;;;;;;;;;;5024618;28;20515;-85
2021/08/20 03:56:09;;;;;;;1.15;0.70;;;;;;;;;;5018586;28;20143;-85
2021/08/20 03:58:35;;;;;;;1.95;0.82;;;;;;;;;;5021295;28;20066;-85
2021/08/20 04:01:05;;;;;;;3.40;0.90;;;;;;;;;;5017541;28;20049;-85
2021/08/20 04:03:32;;;;;;;2.33;0.93;;;;;;;;;;5019813;28;20049;-87
2021/08/20 04:05:58;;;;;;;3.33;0.90;;;;;;;;;;5018494;28;20487;-85
2021/08/20 04:08:25;;;;;;;2.65;1.10;;;;;;;;;;5012274;28;20545;-82
2021/08/20 04:10:51;;;;;;;2.92;0.90;;;;;;;;;;5015861;28;20088;-80
2021/08/20 04:13:18;;;;;;;2.92;1.10;;;;;;;;;;5015748;28;20245;-82
2021/08/20 04:15:44;;;;;;;3.20;1.13;;;;;;;;;;5018869;28;20121;-83
2021/08/20 04:18:11;;;;;;;4.72;1.25;;;;;;;;;;5020581;28;20073;-83
2021/08/20 04:20:37;;;;;;;7.22;2.15;;;;;;;;;;5022575;28;20061;-86
2021/08/20 04:23:05;;;;;;;6.72;1.73;;;;;;;;;;5018378;28;20112;-83
2021/08/20 04:25:32;;;;;;;11.52;2.38;;;;;;;;;;5017945;28;20057;-84
2021/08/20 04:27:59;;;;;;;9.73;2.47;;;;;;;;;;5019908;28;20063;-87
2021/08/20 04:30:29;;;;;;;6.45;2.15;;;;;;;;;;5017674;28;20438;-86
2021/08/20 04:32:56;;;;;;;6.22;2.03;;;;;;;;;;5023787;28;20124;-86
2021/08/20 04:35:23;;;;;;;7.20;2.03;;;;;;;;;;5019014;28;20127;-85
2021/08/20 04:37:49;;;;;;;3.80;1.75;;;;;;;;;;5021062;28;20077;-85
2021/08/20 04:40:16;;;;;;;5.18;1.98;;;;;;;;;;5023353;28;20441;-86
2021/08/20 04:42:43;;;;;;;5.38;2.28;;;;;;;;;;5015720;28;20103;-86
2021/08/20 04:45:10;;;;;;;7.07;1.80;;;;;;;;;;5019139;28;20081;-87
2021/08/20 04:47:38;;;;;;;7.53;1.70;;;;;;;;;;5024309;28;20841;-87
2021/08/20 04:50:04;;;;;;;8.43;2.40;;;;;;;;;;5017819;28;20072;-84
2021/08/20 04:52:31;;;;;;;5.13;1.77;;;;;;;;;;5016897;28;20072;-88
2021/08/20 04:54:57;;;;;;;11.35;1.80;;;;;;;;;;5020333;28;20155;-82
2021/08/20 04:57:24;;;;;;;5.00;1.75;;;;;;;;;;5021966;28;20449;-85
2021/08/20 04:59:50;;;;;;;7.47;2.00;;;;;;;;;;5018465;28;20072;-84
2021/08/20 05:02:16;;;;;;;5.35;1.88;;;;;;;;;;5015596;28;20066;-86
2021/08/20 05:04:45;;;;;;;6.53;1.88;;;;;;;;;;5020780;28;20084;-87
2021/08/20 05:07:11;;;;;;;6.70;1.60;;;;;;;;;;5020631;28;20053;-87
2021/08/20 05:09:38;;;;;;;10.57;1.90;;;;;;;;;;5019918;28;20106;-87
2021/08/20 05:12:06;;;;;;;4.68;1.42;;;;;;;;;;5015212;28;20069;-88
2021/08/20 05:14:33;;;;;;;7.53;1.55;;;;;;;;;;5019603;28;20061;-87
2021/08/20 05:16:59;;;;;;;3.78;1.70;;;;;;;;;;5027917;28;20123;-88
2021/08/20 05:19:25;;;;;;;6.93;1.80;;;;;;;;;;5020523;28;20061;-88
2021/08/20 05:21:52;;;;;;;7.80;1.80;;;;;;;;;;5016175;28;20063;-87
2021/08/20 05:24:18;;;;;;;3.90;1.40;;;;;;;;;;5020586;28;20052;-86
2021/08/20 05:26:44;;;;;;;5.38;1.40;;;;;;;;;;5014414;28;20056;-89
2021/08/20 05:29:11;;;;;;;5.03;1.50;;;;;;;;;;5013916;28;20062;-88
2021/08/20 05:31:37;;;;;;;3.33;1.30;;;;;;;;;;5026088;28;20065;-86
2021/08/20 05:34:04;;;;;;;5.85;2.13;;;;;;;;;;5023210;28;20805;-88
2021/08/20 05:36:30;;;;;;;6.65;1.48;;;;;;;;;;5018211;28;20069;-88
2021/08/20 05:38:56;;;;;;;6.95;1.75;;;;;;;;;;5019848;28;20069;-87
2021/08/20 05:41:23;;;;;;;4.07;1.30;;;;;;;;;;5017801;28;20528;-88
2021/08/20 05:43:49;;;;;;;2.70;1.27;;;;;;;;;;5017314;28;20069;-86
2021/08/20 05:46:16;;;;;;;4.13;1.50;;;;;;;;;;5028176;28;20447;-86
2021/08/20 05:48:42;;;;;;;3.83;1.67;;;;;;;;;;5020901;28;20038;-88
2021/08/20 05:51:09;;;;;;;3.30;1.17;;;;;;;;;;5026513;28;20068;-87
2021/08/20 05:53:36;;;;;;;2.60;1.20;;;;;;;;;;5015381;28;20071;-87
2021/08/20 05:56:02;;;;;;;4.80;1.20;;;;;;;;;;5028204;28;20529;-86
2021/08/20 05:58:28;;;;;;;4.45;1.00;;;;;;;;;;5015300;28;20061;-87
2021/08/20 06:00:55;;;;;;;3.75;1.30;;;;;;;;;;5018776;28;20077;-87
2021/08/20 06:03:22;;;;;;;3.05;1.08;;;;;;;;;;5019761;28;20060;-88
2021/08/20 06:05:48;;;;;;;4.72;1.38;;;;;;;;;;5016841;28;20106;-84
2021/08/20 06:08:15;;;;;;;3.83;1.00;;;;;;;;;;5016272;28;20539;-86
2021/08/20 06:10:44;;;;;;;7.10;1.55;;;;;;;;;;5029892;28;20076;-86
2021/08/20 06:13:11;;;;;;;5.15;1.20;;;;;;;;;;5012075;28;20610;-87
2021/08/20 06:15:38;;;;;;;3.53;1.02;;;;;;;;;;5035254;28;20133;-87
2021/08/20 06:18:05;;;;;;;3.67;0.98;;;;;;;;;;5017229;28;20072;-86
2021/08/20 06:20:31;;;;;;;2.75;1.23;;;;;;;;;;5017565;28;20067;-87
2021/08/20 06:22:58;;;;;;;5.10;1.38;;;;;;;;;;5022558;28;20056;-87
2021/08/20 06:25:24;;;;;;;2.92;1.15;;;;;;;;;;5016082;28;20034;-85
2021/08/20 06:27:50;;;;;;;4.05;1.10;;;;;;;;;;5013794;28;20084;-86
2021/08/20 06:30:17;;;;;;;2.30;0.82;;;;;;;;;;5012703;28;20062;-87
2021/08/20 06:32:43;;;;;;;3.53;1.05;;;;;;;;;;5023574;28;20069;-87
2021/08/20 06:35:10;;;;;;;3.40;1.40;;;;;;;;;;5017928;28;20069;-87
2021/08/20 06:37:36;;;;;;;3.42;1.10;;;;;;;;;;5016161;28;20531;-87
2021/08/20 06:40:03;;;;;;;2.63;1.05;;;;;;;;;;5015685;28;20076;-86
2021/08/20 06:42:29;;;;;;;3.00;1.00;;;;;;;;;;5017581;28;20057;-87
2021/08/20 06:44:56;;;;;;;2.65;1.00;;;;;;;;;;5021122;28;20460;-86
2021/08/20 06:47:22;;;;;;;2.35;1.05;;;;;;;;;;5024571;28;20054;-86
2021/08/20 06:49:50;;;;;;;3.22;1.10;;;;;;;;;;5023269;28;20065;-86
2021/08/20 06:52:17;;;;;;;3.17;1.00;;;;;;;;;;5015459;28;20077;-86
2021/08/20 06:54:43;;;;;;;3.97;1.00;;;;;;;;;;5018423;28;20118;-86
2021/08/20 06:57:12;;;;;;;3.22;1.10;;;;;;;;;;5011952;28;20054;-85
2021/08/20 06:59:38;;;;;;;3.95;1.08;;;;;;;;;;5029045;28;20060;-87
2021/08/20 07:02:04;;;;;;;2.55;1.10;;;;;;;;;;5025641;28;20069;-86
2021/08/20 07:04:33;;;;;;;3.65;1.10;;;;;;;;;;5027578;28;20061;-86
2021/08/20 07:06:59;;;;;;;2.80;1.00;;;;;;;;;;5019802;28;20483;-87
2021/08/20 07:09:26;;;;;;;3.30;1.15;;;;;;;;;;5027135;28;20065;-86
2021/08/20 07:11:52;;;;;;;2.83;0.95;;;;;;;;;;5014936;28;20069;-88
2021/08/20 07:14:18;;;;;;;3.83;1.00;;;;;;;;;;5024885;28;20038;-87
2021/08/20 07:16:46;;;;;;;2.33;0.85;;;;;;;;;;5021732;28;20056;-87
2021/08/20 07:19:12;;;;;;;3.47;1.00;;;;;;;;;;5019679;28;20064;-86
2021/08/20 07:21:39;;;;;;;2.85;0.80;;;;;;;;;;5018849;28;20041;-85
2021/08/20 07:24:05;;;;;;;3.40;0.88;;;;;;;;;;5028645;28;20497;-87
2021/08/20 07:26:31;;;;;;;3.17;1.10;;;;;;;;;;5024921;28;20072;-88
2021/08/20 07:28:58;;;;;;;2.65;0.88;;;;;;;;;;5017312;28;20054;-87
2021/08/20 07:31:25;;;;;;;3.63;0.93;;;;;;;;;;5020417;28;20477;-88
2021/08/20 07:33:53;;;;;;;3.00;0.90;;;;;;;;;;5019914;28;20073;-87
2021/08/20 07:36:20;;;;;;;3.47;0.90;;;;;;;;;;5016821;28;22251;-88
2021/08/20 07:38:47;;;;;;;2.55;0.98;;;;;;;;;;5021015;28;20064;-83
2021/08/20 07:41:13;;;;;;;2.38;0.90;;;;;;;;;;5028748;28;20061;-87
2021/08/20 07:43:39;;;;;;;2.72;0.90;;;;;;;;;;5012686;28;20568;-86
2021/08/20 07:46:06;;;;;;;3.17;0.95;;;;;;;;;;5012931;28;20062;-84
2021/08/20 07:48:32;;;;;;;4.13;0.90;;;;;;;;;;5013873;28;20504;-84
2021/08/20 07:50:59;;;;;;;4.25;1.02;;;;;;;;;;5015535;28;20126;-84
2021/08/20 07:53:25;;;;;;;3.35;1.00;;;;;;;;;;5017634;28;20080;-85
2021/08/20 07:55:53;;;;;;;3.13;1.00;;;;;;;;;;5020790;28;20041;-83
2021/08/20 07:58:19;;;;;;;3.28;1.00;;;;;;;;;;5019433;28;20058;-85
2021/08/20 08:00:46;;;;;;;2.90;0.95;;;;;;;;;;5026563;28;20505;-84
2021/08/20 08:03:12;;;;;;;3.33;0.90;;;;;;;;;;5020877;28;20130;-85
2021/08/20 08:05:38;;;;;;;2.20;0.90;;;;;;;;;;5023419;28;20054;-87
2021/08/20 08:08:05;;;;;;;3.30;1.00;;;;;;;;;;5029871;28;20064;-85
2021/08/20 08:10:31;;;;;;;3.70;1.10;;;;;;;;;;5015178;28;20030;-87
2021/08/20 08:12:58;;;;;;;5.97;1.15;;;;;;;;;;5027510;28;20461;-88
2021/08/20 08:15:24;;;;;;;3.13;1.02;;;;;;;;;;5024718;28;20053;-88
2021/08/20 08:17:51;;;;;;;5.05;1.30;;;;;;;;;;5014542;28;20053;-87
2021/08/20 08:20:18;;;;;;;3.53;1.10;;;;;;;;;;5020444;28;20061;-89
2021/08/20 08:22:45;;;;;;;3.45;1.00;;;;;;;;;;5020908;28;20123;-86
2021/08/20 08:25:12;;;;;;;4.68;1.20;;;;;;;;;;5014925;28;20463;-84
2021/08/20 08:27:56;;;;;;;4.43;0.80;;;;;;;;;;5019542;28;20157;-85
2021/08/20 08:30:24;;;;;;;3.90;1.10;;;;;;;;;;5019063;28;20436;-87
2021/08/20 08:32:51;;;;;;;3.58;0.90;;;;;;;;;;5017541;28;20092;-86
2021/08/20 08:35:17;;;;;;;4.72;1.23;;;;;;;;;;5021796;28;20070;-86
2021/08/20 08:37:44;;;;;;;5.93;1.08;;;;;;;;;;5015710;28;20108;-87
2021/08/20 08:40:11;;;;;;;4.10;1.10;;;;;;;;;;5016220;28;20069;-85
2021/08/20 08:42:38;;;;;;;2.10;1.02;;;;;;;;;;5022699;28;20139;-87
2021/08/20 08:45:05;;;;;;;5.22;1.13;;;;;;;;;;5021627;28;20072;-85
2021/08/20 08:47:33;;;;;;;2.33;1.10;;;;;;;;;;5025938;28;20103;-84
2021/08/20 08:50:00;;;;;;;3.90;1.10;;;;;;;;;;5029235;28;20487;-85
2021/08/20 08:52:26;;;;;;;2.53;0.90;;;;;;;;;;5022502;28;20057;-85
2021/08/20 08:54:52;;;;;;;3.75;1.30;;;;;;;;;;5034569;28;20056;-86
2021/08/20 08:57:19;;;;;;;4.47;1.17;;;;;;;;;;5016911;28;21113;-86
2021/08/20 08:59:45;;;;;;;4.45;1.20;;;;;;;;;;5015053;28;20034;-85
2021/08/20 09:02:22;;;;;;;2.78;1.10;;;;;;;;;;5020724;28;20038;-86
2021/08/20 09:05:02;;;;;;;2.17;0.90;;;;;;;;;;5023191;28;20130;-87
2021/08/20 09:07:29;;;;;;;2.78;1.00;;;;;;;;;;5017134;28;21265;-87
2021/08/20 09:10:10;;;;;;;3.40;1.00;;;;;;;;;;5021788;28;20069;-87
2021/08/20 09:12:37;;;;;;;;;;;;;;;;;;5021017;28;20139;-87
2021/08/20 09:15:03;;;;;;;4.82;1.20;;;;;;;;;;5023165;28;19956;-87
2021/08/20 09:17:35;;;;;;;2.58;0.82;;;;;;;;;;5027658;28;20061;-89
2021/08/20 09:20:01;;;;;;;;;;;;;;;;;;5018165;28;20155;-86
2021/08/20 09:22:33;;;;;;;3.70;1.00;;;;;;;;;;5024700;28;19952;-87
2021/08/20 09:25:00;;;;;;;3.70;1.15;;;;;;;;;;5023393;28;20050;-83
2021/08/20 09:27:27;;;;;;;3.85;0.80;;;;;;;;;;5014042;28;20056;-85
2021/08/20 09:29:58;;;;;;;3.22;0.90;;;;;;;;;;5036292;28;20143;-83
2021/08/20 09:32:25;;;;;;;2.55;0.93;;;;;;;;;;5017618;28;20066;-85
2021/08/20 09:34:52;;;;;;;3.38;0.98;;;;;;;;;;5022607;28;20061;-84
2021/08/20 09:37:19;;;;;;;3.70;1.10;;;;;;;;;;5028301;28;20517;-85
2021/08/20 09:39:46;;;;;;;4.72;0.90;;;;;;;;;;5010482;28;20064;-84
2021/08/20 09:42:14;;;;;;;2.72;0.80;;;;;;;;;;5017926;28;20091;-85
2021/08/20 09:44:41;;;;;;;4.28;1.13;;;;;;;;;;5021790;28;20068;-85
2021/08/20 09:47:07;;;;;;;2.53;1.00;;;;;;;;;;5020429;28;20065;-84
2021/08/20 09:49:53;;;;;;;4.55;1.20;;;;;;;;;;5017967;28;20111;-85
2021/08/20 09:52:29;;;;;;;3.33;1.15;;;;;;;;;;5021320;28;21690;-85
2021/08/20 09:54:56;;;;;;;3.90;1.17;;;;;;;;;;5025628;28;20127;-84
2021/08/20 09:57:25;;;;;;;2.85;1.00;;;;;;;;;;5018560;28;20093;-86
2021/08/20 09:59:53;;;;;;;2.13;1.13;;;;;;;;;;5025490;28;20404;-85
2021/08/20 10:02:20;;;;;;;3.00;1.10;;;;;;;;;;5020476;28;21322;-86
2021/08/20 10:04:47;;;;;;;4.00;1.00;;;;;;;;;;5015033;28;20041;-86
2021/08/20 10:07:17;;;;;;;2.92;1.02;;;;;;;;;;5019534;28;20053;-85
2021/08/20 10:09:45;;;;;;;3.72;1.10;;;;;;;;;;5018743;28;20056;-86
2021/08/20 10:12:12;;;;;;;1.95;0.95;;;;;;;;;;5013348;28;20077;-85
2021/08/20 10:14:39;;;;;;;3.15;1.00;;;;;;;;;;5028460;28;20068;-84
2021/08/20 10:17:05;;;;;;;3.75;0.90;;;;;;;;;;5029350;28;20116;-86
2021/08/20 10:19:32;;;;;;;3.15;0.90;;;;;;;;;;5023034;28;20148;-85
2021/08/20 10:21:59;;;;;;;1.98;0.82;;;;;;;;;;5011301;28;20068;-85
2021/08/20 10:24:26;;;;;;;2.72;1.00;;;;;;;;;;5015723;28;20092;-85
2021/08/20 10:26:56;;;;;;;3.30;0.88;;;;;;;;;;5023661;28;20029;-87
2021/08/20 10:29:24;;;;;;;2.67;1.13;;;;;;;;;;5020013;28;20330;-86
2021/08/20 10:31:51;;;;;;;3.50;1.00;;;;;;;;;;5018551;28;20050;-85
2021/08/20 10:34:36;;;;;;;2.05;0.82;;;;;;;;;;5023380;28;20095;-84
2021/08/20 10:37:09;;;;;;;1.52;0.90;;;;;;;;;;5016680;28;20065;-86
2021/08/20 10:39:36;;;;;;;2.00;0.75;;;;;;;;;;5026671;28;20119;-85
2021/08/20 10:42:04;;;;;;;1.80;1.00;;;;;;;;;;5022737;28;20041;-85
2021/08/20 10:44:37;;;;;;;2.90;0.90;;;;;;;;;;5032539;28;20052;-86
2021/08/20 10:47:04;;;;;;;1.70;0.80;;;;;;;;;;5025437;28;20068;-85
2021/08/20 10:49:40;;;;;;;1.65;0.63;;;;;;;;;;5021864;28;20057;-84
2021/08/20 10:52:06;;;;;;;2.97;0.95;;;;;;;;;;5024185;28;20072;-84
2021/08/20 10:54:40;;;;;;;4.32;1.08;;;;;;;;;;5024342;28;20057;-85
2021/08/20 10:57:07;;;;;;;3.47;0.85;;;;;;;;;;5013889;28;20064;-85
2021/08/20 10:59:39;;;;;;;3.38;0.93;;;;;;;;;;5017980;28;20567;-86
2021/08/20 11:02:21;;;;;;;4.18;0.90;;;;;;;;;;5007922;28;20119;-86
2021/08/20 11:04:59;;;;;;;2.00;0.90;;;;;;;;;;5018268;28;20127;-85
2021/08/20 11:07:37;;;;;;;1.90;0.93;;;;;;;;;;5009694;28;20065;-86
2021/08/20 11:10:09;;;;;;;3.60;1.10;;;;;;;;;;5014921;28;20068;-84
2021/08/20 11:13:02;;;;;;;2.20;0.80;;;;;;;;;;5014624;28;20509;-86
2021/08/20 11:15:48;;;;;;;2.95;0.77;;;;;;;;;;5014189;28;20265;-86
2021/08/20 11:18:15;;;;;;;3.45;0.90;;;;;;;;;;5020961;28;20073;-85
2021/08/20 11:20:42;;;;;;;3.67;1.33;;;;;;;;;;5020730;28;20049;-85
2021/08/20 11:23:14;;;;;;;4.57;1.13;;;;;;;;;;5022499;28;20138;-86
2021/08/20 11:25:43;;;;;;;2.50;0.80;;;;;;;;;;5015790;28;20626;-86
2021/08/20 11:28:10;;;;;;;2.00;0.90;;;;;;;;;;5020102;28;20083;-85
2021/08/20 11:30:38;;;;;;;3.05;0.90;;;;;;;;;;5034784;28;20061;-85
2021/08/20 11:33:07;;;;;;;1.95;1.08;;;;;;;;;;5027397;28;20508;-86
2021/08/20 11:35:34;;;;;;;1.75;0.90;;;;;;;;;;5023199;28;20042;-85
2021/08/20 11:38:01;;;;;;;3.20;0.90;;;;;;;;;;5027587;28;20562;-85
2021/08/20 11:40:27;;;;;;;3.10;0.95;;;;;;;;;;5025460;28;20057;-85
2021/08/20 11:43:06;;;;;;;1.63;0.80;;;;;;;;;;5025260;28;20462;-86
2021/08/20 11:45:34;;;;;;;1.70;0.90;;;;;;;;;;5019782;28;20119;-85
2021/08/20 11:48:00;;;;;;;2.10;0.82;;;;;;;;;;5016300;28;20061;-84
2021/08/20 11:50:28;;;;;;;3.03;1.00;;;;;;;;;;5018986;28;20070;-86
2021/08/20 11:52:54;;;;;;;2.20;0.90;;;;;;;;;;5011210;28;20734;-84
2021/08/20 11:55:20;;;;;;;3.10;1.02;;;;;;;;;;5030587;28;20159;-86
2021/08/20 11:57:47;;;;;;;1.88;0.75;;;;;;;;;;5035677;28;20477;-84
2021/08/20 12:00:14;;;;;;;3.72;1.10;;;;;;;;;;5016955;28;20076;-85
2021/08/20 12:02:41;;;;;;;3.08;0.90;;;;;;;;;;5021933;28;20049;-86
2021/08/20 12:05:21;;;;;;;3.45;1.10;;;;;;;;;;5019386;28;20083;-86
2021/08/20 12:07:48;;;;;;;2.80;1.00;;;;;;;;;;5026979;28;20517;-85
2021/08/20 12:10:17;;;;;;;2.45;0.82;;;;;;;;;;5015872;28;20099;-86
2021/08/20 12:12:45;;;;;;;1.70;0.77;;;;;;;;;;5018311;28;20090;-86
2021/08/20 12:15:12;;;;;;;2.45;0.95;;;;;;;;;;5023796;28;20752;-85
2021/08/20 12:17:38;;;;;;;2.65;1.10;;;;;;;;;;5020629;28;20052;-85
2021/08/20 12:20:18;;;;;;;3.25;0.90;;;;;;;;;;5023282;28;20482;-85
2021/08/20 12:22:49;;;;;;;2.33;1.00;;;;;;;;;;5019523;28;20114;-85
2021/08/20 12:25:20;;;;;;;3.13;1.05;;;;;;;;;;5023038;28;20584;-82
2021/08/20 12:27:47;;;;;;;4.95;1.35;;;;;;;;;;5014869;28;20060;-85
2021/08/20 12:30:17;;;;;;;2.58;1.08;;;;;;;;;;5021894;28;20049;-85
2021/08/20 12:32:45;;;;;;;2.92;0.90;;;;;;;;;;5024369;28;20453;-84
2021/08/20 12:35:16;;;;;;;1.80;0.88;;;;;;;;;;5014419;28;20077;-85
2021/08/20 12:38:01;;;;;;;2.72;0.98;;;;;;;;;;5012682;28;20464;-85
2021/08/20 12:40:44;;;;;;;3.63;0.95;;;;;;;;;;5016511;28;20123;-84
2021/08/20 12:43:26;;;;;;;3.88;0.95;;;;;;;;;;5014509;28;20053;-81
2021/08/20 12:46:04;;;;;;;4.15;1.10;;;;;;;;;;5026570;28;20120;-85
2021/08/20 12:48:31;;;;;;;2.80;1.00;;;;;;;;;;4992341;28;20568;-84
2021/08/20 12:51:05;;;;;;;3.75;0.90;;;;;;;;;;5015259;28;20099;-77
2021/08/20 12:53:32;;;;;;;5.20;1.02;;;;;;;;;;5015789;28;20133;-76
2021/08/20 12:56:00;;;;;;;4.75;1.00;;;;;;;;;;4993683;28;20061;-76
2021/08/20 12:58:31;;;;;;;3.60;1.13;;;;;;;;;;4999272;28;20066;-76
2021/08/20 13:00:58;;;;;;;4.40;1.13;;;;;;;;;;5000816;28;20116;-78
2021/08/20 13:03:24;;;;;;;3.80;1.00;;;;;;;;;;5000857;28;20057;-80
2021/08/20 13:05:52;;;;;;;5.68;1.20;;;;;;;;;;5003040;28;20493;-80
2021/08/20 13:08:19;;;;;;;6.68;1.42;;;;;;;;;;4988905;28;20136;-79
2021/08/20 13:10:46;;;;;;;2.95;0.70;;;;;;;;;;5002481;28;20571;-79
2021/08/20 13:13:12;;;;;;;4.72;0.93;;;;;;;;;;4993149;28;20078;-79
2021/08/20 13:15:42;;;;;;;3.25;0.80;;;;;;;;;;5000222;28;20065;-78
2021/08/20 13:18:08;;;;;;;5.57;1.00;;;;;;;;;;4994620;28;20127;-79
2021/08/20 13:20:35;;;;;;;2.25;1.00;;;;;;;;;;4997610;28;20108;-78
2021/08/20 13:23:01;;;;;;;4.93;1.08;;;;;;;;;;4990180;28;20512;-77
2021/08/20 13:25:27;;;;;;;4.13;1.20;;;;;;;;;;4998357;28;20062;-78
2021/08/20 13:27:54;;;;;;;2.22;1.00;;;;;;;;;;4996232;28;20062;-79
2021/08/20 13:30:20;;;;;;;4.00;1.10;;;;;;;;;;4991067;28;20356;-79
2021/08/20 13:32:47;;;;;;;3.03;0.88;;;;;;;;;;4996345;28;20077;-79
2021/08/20 13:35:13;;;;;;;4.60;1.35;;;;;;;;;;4993872;28;20061;-80
2021/08/20 13:37:40;;;;;;;6.78;1.02;;;;;;;;;;4992935;28;20050;-80
2021/08/20 13:40:06;;;;;;;3.15;1.10;;;;;;;;;;4987849;28;20050;-80
2021/08/20 13:42:36;;;;;;;3.38;1.00;;;;;;;;;;4995215;28;20046;-79
2021/08/20 13:45:02;;;;;;;4.60;1.23;;;;;;;;;;4995647;28;20654;-77
2021/08/20 13:47:28;;;;;;;5.55;1.33;;;;;;;;;;5002749;28;20108;-79
2021/08/20 13:49:55;;;;;;;5.00;1.10;;;;;;;;;;4993379;28;20069;-77
2021/08/20 13:52:21;;;;;;;4.60;1.00;;;;;;;;;;4992597;28;20058;-79
2021/08/20 13:54:47;;;;;;;3.15;1.00;;;;;;;;;;5000840;28;20061;-79
2021/08/20 13:57:14;;;;;;;3.70;0.95;;;;;;;;;;4991807;28;20065;-79
2021/08/20 13:59:40;;;;;;;2.97;0.90;;;;;;;;;;4994463;28;20065;-79
2021/08/20 14:02:07;;;;;;;4.28;1.13;;;;;;;;;;4994785;28;20125;-78
2021/08/20 14:04:33;;;;;;;3.92;1.10;;;;;;;;;;4994100;28;20069;-82
2021/08/20 14:07:00;;;;;;;5.72;1.23;;;;;;;;;;4995286;28;20502;-78
2021/08/20 14:09:26;;;;;;;3.10;0.88;;;;;;;;;;4990885;28;20065;-78
2021/08/20 14:11:53;;;;;;;4.38;1.17;;;;;;;;;;5002500;28;20100;-79
2021/08/20 14:14:19;;;;;;;4.68;1.13;;;;;;;;;;5000017;28;20084;-78
2021/08/20 14:16:45;;;;;;;2.97;0.80;;;;;;;;;;4994180;28;20592;-79
2021/08/20 14:19:14;;;;;;;1.83;0.93;;;;;;;;;;5002120;28;20075;-78
2021/08/20 14:21:41;;;;;;;4.15;1.00;;;;;;;;;;4994869;28;20060;-79
2021/08/20 14:24:07;;;;;;;3.80;1.00;;;;;;;;;;4987143;28;20062;-79
2021/08/20 14:26:34;;;;;;;3.00;1.00;;;;;;;;;;4999697;28;20066;-79
2021/08/20 14:29:00;;;;;;;2.97;0.88;;;;;;;;;;4998465;28;20058;-77
2021/08/20 14:31:27;;;;;;;4.78;0.90;;;;;;;;;;4997833;28;20100;-79
2021/08/20 14:33:53;;;;;;;4.07;1.08;;;;;;;;;;4998183;28;20077;-79
2021/08/20 14:36:20;;;;;;;1.77;0.90;;;;;;;;;;5004743;28;20446;-78
2021/08/20 14:38:46;;;;;;;2.00;0.90;;;;;;;;;;4992823;28;20069;-79
2021/08/20 14:41:13;;;;;;;2.50;1.10;;;;;;;;;;4996524;28;20567;-79
2021/08/20 14:43:39;;;;;;;2.75;1.15;;;;;;;;;;5014830;28;20065;-79
2021/08/20 14:46:06;;;;;;;2.85;0.90;;;;;;;;;;5001079;28;20069;-79